Terminal Aerodrome Forecast
Issued by NWS Amarillo, TX

Home | Current Version | Previous Version | Text Only | Print | Product List | Glossary On
Versions: 1 2 3 4 5 6 7 8 9 10 11 12 13 14
000
FTUS44 KAMA 162008 AAB
TAFDHT
TAF AMD
KDHT 162008Z 1620/1718 18019G29KT P6SM FEW300
     FM162300 18010KT P6SM FEW300
     FM170600 34011KT P6SM SCT070=

USA.gov is the U.S. government's official web portal to all federal, state and local government web resources and services.